Time;durP1;ratioP1;P1;durP2;ratioP2;P2;SDS_P1;SDS_P2;PMS_P1;PMS_P2;Temp;Humidity;BMP_temperature;BMP_pressure;BME280_temperature;BME280_humidity;BME280_pressure;Samples;Min_cycle;Max_cycle;Signal;HPM_P1;HPM_P2
2023/12/21 00:00:33;;;;;;;0.50;0.50;;;;;;;2.68;88.61;98018.13;5085051;28;20099;-63
2023/12/21 00:02:59;;;;;;;3.55;2.05;;;;;;;2.68;88.28;98015.56;5085116;28;20078;-62
2023/12/21 00:05:24;;;;;;;3.13;0.95;;;;;;;2.66;88.01;98015.56;5085132;28;20048;-64
2023/12/21 00:07:49;;;;;;;1.25;1.02;;;;;;;2.72;87.83;98012.91;5066874;28;20028;-62
2023/12/21 00:10:15;;;;;;;1.60;1.50;;;;;;;2.72;88.46;98010.34;5085132;28;20028;-62
2023/12/21 00:12:40;;;;;;;0.50;0.50;;;;;;;2.70;88.00;97986.47;5086344;28;20078;-64
2023/12/21 00:15:06;;;;;;;1.50;1.38;;;;;;;2.73;87.84;97980.47;5071107;28;20486;-63
2023/12/21 00:17:32;;;;;;;0.80;0.80;;;;;;;2.69;87.91;97973.69;5089213;28;20050;-62
2023/12/21 00:19:57;;;;;;;0.63;0.63;;;;;;;2.68;88.16;97966.88;5088991;28;20013;-63
2023/12/21 00:22:23;;;;;;;1.63;0.90;;;;;;;2.68;87.70;97956.63;5088763;28;21474;-63
2023/12/21 00:24:48;;;;;;;0.70;0.70;;;;;;;2.65;87.87;97947.25;5070709;28;20034;-63
2023/12/21 00:27:13;;;;;;;3.13;0.85;;;;;;;2.62;87.38;97937.06;5088930;28;20070;-66
2023/12/21 00:29:39;;;;;;;1.35;1.15;;;;;;;2.69;88.21;97946.34;5088129;28;20024;-66
2023/12/21 00:32:04;;;;;;;11.93;4.18;;;;;;;2.71;87.62;97942.06;5087991;28;20077;-65
2023/12/21 00:34:30;;;;;;;0.50;0.50;;;;;;;2.75;87.62;97939.44;5088458;28;20048;-65
2023/12/21 00:36:55;;;;;;;0.88;0.88;;;;;;;2.71;87.79;97931.81;5087419;28;20028;-65
2023/12/21 00:39:20;;;;;;;1.50;1.40;;;;;;;2.68;87.59;97921.63;5088377;28;20027;-66
2023/12/21 00:41:46;;;;;;;1.80;1.70;;;;;;;2.63;87.74;97912.28;5088733;28;20056;-66
2023/12/21 00:44:11;;;;;;;1.95;1.23;;;;;;;2.60;87.00;97908.91;5088636;28;20033;-66
2023/12/21 00:46:36;;;;;;;0.60;0.60;;;;;;;2.55;87.36;97904.75;5070279;28;20055;-66
2023/12/21 00:49:02;;;;;;;0.75;0.75;;;;;;;2.48;88.01;97893.75;5088522;28;20044;-65
2023/12/21 00:51:27;;;;;;;0.57;0.57;;;;;;;2.46;87.93;97900.63;5088667;28;20020;-66
2023/12/21 00:53:53;;;;;;;2.38;2.05;;;;;;;2.42;87.77;97896.41;5088370;28;20097;-66
2023/12/21 00:56:18;;;;;;;0.68;0.68;;;;;;;2.34;88.13;97884.56;5088308;28;20452;-65
2023/12/21 00:58:43;;;;;;;2.70;1.35;;;;;;;2.32;88.01;97888.00;5088432;28;20081;-66
2023/12/21 01:01:09;;;;;;;13.05;1.50;;;;;;;2.32;88.01;97898.25;5088370;28;20025;-65
2023/12/21 01:03:34;;;;;;;0.50;0.50;;;;;;;2.26;88.40;97899.19;5088344;28;20021;-66
2023/12/21 01:05:59;;;;;;;3.40;2.55;;;;;;;2.23;88.13;97910.34;5088318;28;20024;-66
2023/12/21 01:08:25;;;;;;;3.75;0.63;;;;;;;2.20;88.50;97910.41;5088017;28;20016;-66
2023/12/21 01:10:50;;;;;;;0.73;0.73;;;;;;;2.18;88.40;97913.81;5087569;28;20021;-66
2023/12/21 01:13:15;;;;;;;0.50;0.50;;;;;;;2.17;88.57;97910.41;5087519;28;20075;-65
2023/12/21 01:15:41;;;;;;;2.50;1.92;;;;;;;2.18;88.31;97909.56;5087931;28;20031;-65
2023/12/21 01:18:06;;;;;;;4.18;1.23;;;;;;;2.16;89.04;97903.59;5087798;28;20088;-65
2023/12/21 01:20:32;;;;;;;6.38;1.35;;;;;;;2.15;88.65;97899.38;5087719;28;20124;-65
2023/12/21 01:22:57;;;;;;;0.52;0.52;;;;;;;2.14;88.79;97897.66;5087518;28;20020;-66
2023/12/21 01:25:22;;;;;;;0.80;0.80;;;;;;;2.13;88.96;97893.41;5088014;28;20028;-65
2023/12/21 01:27:48;;;;;;;2.70;1.23;;;;;;;2.15;89.05;97891.69;5087684;28;20065;-66
2023/12/21 01:30:13;;;;;;;0.50;0.50;;;;;;;2.15;89.16;97884.00;5069660;28;20029;-65
2023/12/21 01:32:38;;;;;;;5.57;0.95;;;;;;;2.23;89.38;97895.00;5087913;28;20028;-66
2023/12/21 01:35:04;;;;;;;2.85;1.23;;;;;;;2.23;89.48;97878.78;5087213;28;20024;-67
2023/12/21 01:37:29;;;;;;;3.05;0.75;;;;;;;2.29;89.93;97867.56;5087405;28;20021;-66
2023/12/21 01:39:55;;;;;;;2.88;1.30;;;;;;;2.31;89.97;97865.84;5087776;28;20016;-66
2023/12/21 01:42:20;;;;;;;0.80;0.80;;;;;;;2.33;90.10;97864.13;5087407;28;20529;-65
2023/12/21 01:44:45;;;;;;;5.13;1.98;;;;;;;2.37;90.16;97860.63;5087403;28;20020;-65
2023/12/21 01:47:11;;;;;;;2.35;0.90;;;;;;;2.33;90.09;97848.75;5086790;28;20032;-66
2023/12/21 01:49:37;;;;;;;7.00;2.25;;;;;;;2.34;90.25;97850.44;5087464;28;20380;-65
2023/12/21 01:52:03;;;;;;;2.35;2.25;;;;;;;2.37;90.16;97858.06;5069171;28;20082;-66
2023/12/21 01:54:28;;;;;;;1.45;1.35;;;;;;;2.38;90.38;97844.38;5086776;28;20103;-65
2023/12/21 01:56:54;;;;;;;15.70;0.95;;;;;;;2.40;90.45;97845.22;5087014;28;20031;-65
2023/12/21 01:59:19;;;;;;;1.67;1.58;;;;;;;2.41;91.00;97851.19;5086709;28;20017;-65
2023/12/21 02:01:45;;;;;;;11.98;1.73;;;;;;;2.42;90.92;97850.31;5085670;28;20083;-66
2023/12/21 02:04:10;;;;;;;1.33;1.23;;;;;;;2.42;91.24;97850.31;5085839;28;20027;-64
2023/12/21 02:06:36;;;;;;;0.75;0.75;;;;;;;2.43;91.23;97840.03;5086811;28;20082;-65
2023/12/21 02:09:01;;;;;;;2.50;2.40;;;;;;;2.47;91.31;97831.44;5086740;28;20017;-65
2023/12/21 02:11:27;;;;;;;0.50;0.50;;;;;;;2.50;91.64;97827.97;5086585;28;20056;-65
2023/12/21 02:13:52;;;;;;;0.77;0.77;;;;;;;2.48;91.93;97815.19;5086539;28;20027;-65
2023/12/21 02:16:32;;;;;;;2.38;0.88;;;;;;;2.54;91.60;97811.66;5086597;28;20016;-65
2023/12/21 02:18:58;;;;;;;1.45;1.35;;;;;;;2.57;91.89;97810.78;5078554;28;20020;-65
2023/12/21 02:21:24;;;;;;;0.43;0.43;;;;;;;2.59;92.18;97804.75;5086683;28;20035;-65
2023/12/21 02:23:53;;;;;;;0.80;0.80;;;;;;;2.67;92.06;97799.50;5086569;28;20032;-65
2023/12/21 02:26:18;;;;;;;7.38;3.70;;;;;;;2.63;92.13;97782.50;5086470;28;20028;-66
2023/12/21 02:28:44;;;;;;;2.22;0.70;;;;;;;2.75;91.93;97785.72;5086803;28;20024;-66
2023/12/21 02:31:09;;;;;;;3.92;2.25;;;;;;;2.75;91.73;97775.47;5086226;28;20085;-66
2023/12/21 02:33:35;;;;;;;1.10;1.10;;;;;;;2.65;91.69;97767.91;5086575;28;20029;-66
2023/12/21 02:36:00;;;;;;;1.48;1.38;;;;;;;2.64;91.46;97763.69;5085648;28;20035;-66
2023/12/21 02:38:26;;;;;;;1.13;1.02;;;;;;;2.54;91.26;97746.81;5068101;28;20020;-65
2023/12/21 02:40:51;;;;;;;1.88;1.65;;;;;;;2.60;91.22;97755.19;5068377;28;20509;-66
2023/12/21 02:43:16;;;;;;;3.67;2.55;;;;;;;2.55;91.09;97746.78;5086268;28;20021;-66
2023/12/21 02:45:42;;;;;;;1.50;1.40;;;;;;;2.50;91.41;97742.59;5086031;28;20055;-65
2023/12/21 02:48:07;;;;;;;8.13;2.28;;;;;;;2.48;91.23;97745.19;5068184;28;20035;-65
2023/12/21 02:50:32;;;;;;;1.85;1.55;;;;;;;2.40;91.37;97737.66;5086029;28;20067;-66
2023/12/21 02:52:58;;;;;;;4.72;1.55;;;;;;;2.47;91.14;97739.25;5085905;28;20095;-66
2023/12/21 02:55:23;;;;;;;0.85;0.63;;;;;;;2.51;91.31;97729.75;5085875;28;20112;-65
2023/12/21 02:57:48;;;;;;;19.48;2.58;;;;;;;2.53;91.30;97734.88;5085550;28;20027;-65
2023/12/21 03:00:14;;;;;;;2.20;2.00;;;;;;;2.54;91.18;97724.59;5067947;28;20036;-65
2023/12/21 03:02:40;;;;;;;16.40;1.15;;;;;;;2.46;90.91;97724.72;5085877;28;20032;-66
2023/12/21 03:05:05;;;;;;;0.70;0.70;;;;;;;2.42;91.32;97725.69;5067449;28;20017;-65
2023/12/21 03:07:31;;;;;;;0.80;0.80;;;;;;;2.35;91.11;97721.53;5085605;28;20024;-65
2023/12/21 03:09:56;;;;;;;2.58;2.40;;;;;;;2.30;91.27;97711.38;5067802;28;20016;-66
2023/12/21 03:12:22;;;;;;;4.95;1.40;;;;;;;2.22;91.60;97698.72;5085590;28;20024;-64
2023/12/21 03:14:47;;;;;;;0.50;0.50;;;;;;;2.17;91.72;97687.72;5085657;28;20024;-65
2023/12/21 03:17:13;;;;;;;0.50;0.50;;;;;;;2.15;91.91;97681.78;5085488;28;20024;-65
2023/12/21 03:19:39;;;;;;;1.55;1.20;;;;;;;2.12;91.73;97681.84;5085537;28;20108;-65
2023/12/21 03:22:04;;;;;;;4.53;1.63;;;;;;;2.09;92.17;97664.81;5085209;28;20060;-65
2023/12/21 03:24:29;;;;;;;1.02;0.82;;;;;;;2.05;92.35;97665.75;5085369;28;20039;-66
2023/12/21 03:26:55;;;;;;;1.23;1.13;;;;;;;2.08;92.53;97657.16;5085448;28;20013;-65
2023/12/21 03:29:20;;;;;;;5.57;1.73;;;;;;;2.07;92.71;97648.66;5067027;28;20046;-66
2023/12/21 03:31:45;;;;;;;1.30;1.20;;;;;;;2.06;92.90;97634.16;5085437;28;20032;-65
2023/12/21 03:34:11;;;;;;;0.50;0.50;;;;;;;2.12;93.16;97624.69;5085253;28;20074;-66
2023/12/21 03:36:36;;;;;;;0.55;0.55;;;;;;;2.11;93.39;97618.72;5085170;28;20028;-65
2023/12/21 03:39:01;;;;;;;1.65;1.55;;;;;;;2.10;93.46;97614.47;5085104;28;20016;-66
2023/12/21 03:41:27;;;;;;;0.70;0.70;;;;;;;2.13;93.57;97611.84;5085067;28;20504;-66
2023/12/21 03:43:52;;;;;;;1.10;0.70;;;;;;;2.11;93.45;97593.13;5085332;28;20032;-66
2023/12/21 03:46:17;;;;;;;3.47;2.03;;;;;;;2.13;93.61;97588.81;5066355;28;20101;-66
2023/12/21 03:48:44;;;;;;;1.02;1.02;;;;;;;2.16;93.68;97575.97;5084994;28;20476;-65
2023/12/21 03:51:09;;;;;;;1.08;1.05;;;;;;;2.18;93.86;97575.94;5085046;28;20027;-66
2023/12/21 03:53:34;;;;;;;1.23;1.13;;;;;;;2.14;94.04;97559.78;5085194;28;20017;-66
2023/12/21 03:56:00;;;;;;;3.00;1.45;;;;;;;2.16;93.85;97541.84;5085086;28;20028;-67
2023/12/21 03:58:25;;;;;;;0.50;0.50;;;;;;;2.20;93.86;97543.47;5085143;28;20084;-66
2023/12/21 04:00:51;;;;;;;1.25;1.25;;;;;;;2.21;94.06;97532.34;5085147;28;20028;-66
2023/12/21 04:03:16;;;;;;;2.55;2.35;;;;;;;2.28;94.29;97530.50;5085048;28;20021;-66
2023/12/21 04:05:41;;;;;;;1.50;1.40;;;;;;;2.29;94.41;97527.06;5084880;28;20025;-66
2023/12/21 04:08:07;;;;;;;14.80;0.82;;;;;;;2.20;93.90;97495.69;5084728;28;20021;-66
2023/12/21 04:10:32;;;;;;;0.82;0.82;;;;;;;2.36;94.11;97505.59;5085325;28;20028;-67
2023/12/21 04:12:57;;;;;;;3.00;1.95;;;;;;;2.33;94.09;97496.25;5085074;28;20028;-67
2023/12/21 04:15:23;;;;;;;0.68;0.68;;;;;;;2.39;94.14;97495.28;5084849;28;20084;-66
2023/12/21 04:17:48;;;;;;;0.40;0.40;;;;;;;2.40;94.41;97470.50;5084991;28;20549;-66
2023/12/21 04:20:14;;;;;;;0.50;0.50;;;;;;;2.37;94.41;97455.19;5084950;28;20039;-66
2023/12/21 04:22:39;;;;;;;1.15;0.60;;;;;;;2.44;94.28;97454.19;5066469;28;20119;-66
2023/12/21 04:25:04;;;;;;;11.57;1.45;;;;;;;2.45;94.36;97441.38;5085024;28;20029;-66
2023/12/21 04:27:30;;;;;;;0.80;0.80;;;;;;;2.43;94.73;97437.97;5084767;28;20020;-67
2023/12/21 04:29:55;;;;;;;8.93;1.73;;;;;;;2.45;94.34;97423.44;5066878;28;20017;-66
2023/12/21 04:32:20;;;;;;;1.95;1.85;;;;;;;2.49;94.61;97411.41;5084659;28;20046;-66
2023/12/21 04:34:46;;;;;;;2.03;0.47;;;;;;;2.41;94.67;97395.38;5066647;28;20032;-66
2023/12/21 04:37:12;;;;;;;2.45;2.25;;;;;;;2.48;94.65;97400.31;5084710;28;20109;-66
2023/12/21 04:39:38;;;;;;;0.50;0.50;;;;;;;2.50;94.67;97389.19;5084579;28;20558;-65
2023/12/21 04:42:03;;;;;;;4.00;2.78;;;;;;;2.43;94.86;97373.97;5084598;28;20091;-65
2023/12/21 04:44:28;;;;;;;3.97;1.15;;;;;;;2.50;94.88;97358.44;5084797;28;20075;-65
2023/12/21 04:46:54;;;;;;;3.22;0.80;;;;;;;2.54;94.79;97362.63;5084353;28;20090;-65
2023/12/21 04:49:22;;;;;;;0.50;0.50;;;;;;;2.55;94.95;97343.81;5084747;28;20078;-65
2023/12/21 04:51:48;;;;;;;2.90;1.42;;;;;;;2.59;95.10;97346.25;5084764;28;20028;-66
2023/12/21 04:54:13;;;;;;;1.25;1.15;;;;;;;2.52;95.29;97316.56;5084274;28;20024;-66
2023/12/21 04:56:40;;;;;;;0.60;0.60;;;;;;;2.63;95.50;97321.41;5084739;28;20025;-65
2023/12/21 04:59:06;;;;;;;0.90;0.90;;;;;;;2.68;95.57;97317.03;5086740;28;20017;-65
2023/12/21 05:01:31;;;;;;;13.45;1.15;;;;;;;2.64;95.75;97294.06;5070098;28;20029;-65
2023/12/21 05:03:57;;;;;;;4.88;1.88;;;;;;;2.78;95.79;97297.09;5070218;28;20074;-65
2023/12/21 05:06:22;;;;;;;1.08;0.98;;;;;;;2.83;95.83;97285.00;5088133;28;20035;-66
2023/12/21 05:08:47;;;;;;;0.98;0.88;;;;;;;2.85;95.98;97279.84;5087934;28;20017;-65
2023/12/21 05:11:13;;;;;;;0.60;0.60;;;;;;;2.85;96.06;97267.03;5070033;28;20490;-67
2023/12/21 05:13:38;;;;;;;2.33;0.52;;;;;;;2.88;96.11;97254.13;5088097;28;20024;-68
2023/12/21 05:16:04;;;;;;;1.65;0.80;;;;;;;2.84;95.92;97234.63;5069992;28;20025;-66
2023/12/21 05:18:29;;;;;;;5.32;2.22;;;;;;;2.95;96.01;97242.84;5088018;28;20020;-66
2023/12/21 05:20:54;;;;;;;0.70;0.70;;;;;;;2.95;96.19;97222.34;5069907;28;20031;-66
2023/12/21 05:23:20;;;;;;;0.93;0.93;;;;;;;2.99;95.96;97215.38;5087587;28;20115;-65
2023/12/21 05:25:45;;;;;;;2.72;1.88;;;;;;;3.04;95.86;97207.56;5087941;28;20028;-66
2023/12/21 05:28:13;;;;;;;1.35;1.25;;;;;;;3.04;95.97;97177.66;5087736;28;20024;-68
2023/12/21 05:30:39;;;;;;;0.43;0.43;;;;;;;3.04;95.94;97171.66;5087695;28;20033;-66
2023/12/21 05:33:04;;;;;;;4.13;3.60;;;;;;;3.07;95.83;97161.31;5087506;28;20026;-66
2023/12/21 05:35:30;;;;;;;2.67;1.40;;;;;;;3.01;95.98;97138.44;5087253;28;20058;-66
2023/12/21 05:37:55;;;;;;;4.45;1.65;;;;;;;3.02;95.84;97145.28;5087486;28;20104;-64
2023/12/21 05:40:22;;;;;;;0.85;0.80;;;;;;;3.01;96.11;97133.31;5069668;28;20036;-64
2023/12/21 05:42:47;;;;;;;0.50;0.50;;;;;;;3.00;95.47;97113.72;5087554;28;20021;-64
2023/12/21 05:45:13;;;;;;;1.40;1.35;;;;;;;2.95;95.27;97099.34;5087432;28;20086;-64
2023/12/21 05:47:38;;;;;;;1.25;0.88;;;;;;;2.81;95.48;97076.69;5087264;28;20128;-63
2023/12/21 05:50:04;;;;;;;1.33;1.13;;;;;;;2.76;95.72;97060.63;5087046;28;20095;-64
2023/12/21 05:52:30;;;;;;;26.75;2.97;;;;;;;2.68;95.89;97052.34;5087086;28;20017;-62
2023/12/21 05:54:55;;;;;;;9.73;2.67;;;;;;;2.69;95.74;97036.06;5069430;28;20020;-62
2023/12/21 05:57:20;;;;;;;11.50;1.38;;;;;;;2.69;95.71;97026.69;5087381;28;20115;-61
2023/12/21 05:59:46;;;;;;;1.95;1.67;;;;;;;2.60;95.81;96999.59;5086540;28;20127;-62
2023/12/21 06:02:12;;;;;;;1.42;0.82;;;;;;;2.61;95.35;96992.78;5085955;28;20028;-62
2023/12/21 06:04:37;;;;;;;0.90;0.90;;;;;;;2.53;95.48;96984.47;5086099;28;20028;-63
2023/12/21 06:07:03;;;;;;;0.80;0.80;;;;;;;2.50;94.93;96969.22;5069143;28;20056;-63
2023/12/21 06:09:28;;;;;;;1.02;0.80;;;;;;;2.41;95.17;96958.38;5085887;28;20029;-63
2023/12/21 06:11:54;;;;;;;5.57;2.30;;;;;;;2.14;95.33;96916.56;5087044;28;20020;-62
2023/12/21 06:14:19;;;;;;;1.48;0.80;;;;;;;2.48;93.65;96936.81;5087012;28;20083;-63
2023/12/21 06:16:45;;;;;;;3.80;2.05;;;;;;;2.32;93.72;96917.69;5086805;28;20032;-63
2023/12/21 06:19:10;;;;;;;0.55;0.55;;;;;;;2.23;93.82;96906.03;5068848;28;20088;-63
2023/12/21 06:21:39;;;;;;;2.85;1.38;;;;;;;2.03;95.00;96897.25;5086676;28;20028;-64
2023/12/21 06:24:06;;;;;;;0.50;0.50;;;;;;;2.13;95.08;96889.28;5086619;28;20032;-63
2023/12/21 06:26:31;;;;;;;8.70;1.88;;;;;;;2.07;94.35;96885.19;5086628;28;20056;-62
2023/12/21 06:28:57;;;;;;;0.50;0.50;;;;;;;2.16;93.68;96877.22;5086709;28;20488;-64
2023/12/21 06:31:23;;;;;;;6.85;1.92;;;;;;;1.89;94.76;96858.44;5086402;28;20496;-63
2023/12/21 06:33:49;;;;;;;8.60;1.10;;;;;;;1.88;95.17;96846.56;5068642;28;20070;-63
2023/12/21 06:36:14;;;;;;;1.23;1.05;;;;;;;1.81;95.73;96840.78;5086560;28;20021;-64
2023/12/21 06:38:40;;;;;;;0.82;0.82;;;;;;;1.87;95.53;96829.53;5086132;28;20016;-66
2023/12/21 06:41:05;;;;;;;0.52;0.52;;;;;;;1.77;95.81;96817.03;5086324;28;20035;-64
2023/12/21 06:43:31;;;;;;;0.70;0.70;;;;;;;1.79;96.03;96809.31;5086287;28;20028;-63
2023/12/21 06:45:57;;;;;;;1.25;1.15;;;;;;;1.72;96.46;96796.72;5068074;28;20094;-61
2023/12/21 06:48:22;;;;;;;0.60;0.60;;;;;;;1.76;96.51;96794.06;5086410;28;20024;-62
2023/12/21 06:50:48;;;;;;;0.75;0.75;;;;;;;1.84;96.18;96779.28;5086261;28;20024;-62
2023/12/21 06:53:15;;;;;;;0.50;0.50;;;;;;;1.77;96.18;96759.94;5086042;28;20046;-62
2023/12/21 06:55:42;;;;;;;0.40;0.40;;;;;;;1.73;96.23;96754.91;5085842;28;20035;-61
2023/12/21 06:58:07;;;;;;;0.50;0.50;;;;;;;1.60;96.81;96741.66;5086215;28;20032;-61
2023/12/21 07:00:33;;;;;;;0.50;0.50;;;;;;;1.56;96.97;96737.56;5086253;28;20081;-61
2023/12/21 07:03:00;;;;;;;0.40;0.40;;;;;;;1.56;97.01;96721.38;5086087;28;20043;-61
2023/12/21 07:05:25;;;;;;;0.43;0.43;;;;;;;1.51;96.81;96713.00;5086083;28;20051;-61
2023/12/21 07:07:50;;;;;;;0.50;0.50;;;;;;;1.43;96.93;96703.88;5085919;28;20016;-61
2023/12/21 07:10:16;;;;;;;0.50;0.50;;;;;;;1.40;96.59;96695.44;5085830;28;20016;-61
2023/12/21 07:12:41;;;;;;;0.45;0.45;;;;;;;1.27;96.34;96669.44;5085825;28;20021;-61
2023/12/21 07:15:07;;;;;;;0.50;0.50;;;;;;;1.21;96.57;96673.88;5085754;28;20111;-63
2023/12/21 07:17:32;;;;;;;0.45;0.45;;;;;;;1.10;96.56;96658.03;5085449;28;20029;-61
2023/12/21 07:19:57;;;;;;;0.50;0.50;;;;;;;0.99;96.82;96637.94;5085685;28;20016;-63
2023/12/21 07:22:23;;;;;;;0.50;0.50;;;;;;;0.93;96.56;96633.81;5085408;28;20028;-62
2023/12/21 07:24:49;;;;;;;0.47;0.47;;;;;;;0.78;96.76;96614.72;5085501;28;20028;-62
2023/12/21 07:27:15;;;;;;;0.50;0.50;;;;;;;0.70;96.91;96603.88;5085684;28;20400;-63
2023/12/21 07:29:41;;;;;;;0.50;0.50;;;;;;;0.69;96.66;96587.72;5085701;28;20067;-65
2023/12/21 07:32:06;;;;;;;0.45;0.45;;;;;;;0.65;96.32;96575.94;5085416;28;20035;-65
2023/12/21 07:34:32;;;;;;;0.50;0.50;;;;;;;0.57;95.01;96557.47;5084531;28;20021;-64
2023/12/21 07:36:57;;;;;;;0.50;0.50;;;;;;;0.42;95.36;96521.31;5066882;28;20024;-64
2023/12/21 07:39:22;;;;;;;0.40;0.40;;;;;;;0.37;95.26;96515.50;5085161;28;20027;-65
2023/12/21 07:41:48;;;;;;;0.50;0.50;;;;;;;0.32;95.64;96492.69;5085472;28;20059;-65
2023/12/21 07:44:13;;;;;;;0.50;0.50;;;;;;;0.24;95.91;96490.38;5085545;28;20024;-65
2023/12/21 07:46:39;;;;;;;0.50;0.50;;;;;;;0.28;95.91;96472.41;5084422;28;20044;-65
2023/12/21 07:49:04;;;;;;;0.50;0.50;;;;;;;0.28;96.11;96462.22;5084998;28;20039;-65
2023/12/21 07:51:29;;;;;;;0.40;0.40;;;;;;;0.30;96.34;96450.25;5084804;28;20225;-65
2023/12/21 07:53:55;;;;;;;0.50;0.50;;;;;;;0.29;96.28;96425.63;5084983;28;20016;-65
2023/12/21 07:56:21;;;;;;;0.43;0.43;;;;;;;0.30;96.41;96417.09;5085307;28;20036;-64
2023/12/21 07:58:46;;;;;;;0.50;0.50;;;;;;;0.21;96.74;96403.72;5085298;28;20480;-65
2023/12/21 08:01:12;;;;;;;0.50;0.50;;;;;;;0.10;97.70;96380.28;5067171;28;20033;-64
2023/12/21 08:03:37;;;;;;;0.57;0.57;;;;;;;0.38;96.85;96379.41;5085275;28;20096;-65
2023/12/21 08:06:03;;;;;;;0.50;0.50;;;;;;;0.23;97.49;96350.97;5067040;28;20016;-64
2023/12/21 08:08:30;;;;;;;0.50;0.50;;;;;;;0.30;97.13;96332.91;5085165;28;20028;-64
2023/12/21 08:10:56;;;;;;;0.50;0.50;;;;;;;0.43;96.15;96321.38;5085210;28;20043;-64
2023/12/21 08:13:22;;;;;;;0.43;0.43;;;;;;;0.33;97.09;96299.63;5085086;28;20395;-63
2023/12/21 08:15:47;;;;;;;0.50;0.50;;;;;;;0.43;97.16;96289.94;5085025;28;20490;-64
2023/12/21 08:18:16;;;;;;;0.50;0.50;;;;;;;0.25;97.55;96266.72;5085098;28;20027;-63
2023/12/21 08:20:42;;;;;;;0.47;0.47;;;;;;;0.40;97.34;96277.28;5066860;28;20024;-64
2023/12/21 08:23:08;;;;;;;0.50;0.50;;;;;;;0.48;96.77;96265.09;5084890;28;20082;-64
2023/12/21 08:25:34;;;;;;;0.40;0.40;;;;;;;0.40;97.22;96250.03;5085149;28;20020;-63
2023/12/21 08:27:59;;;;;;;0.45;0.45;;;;;;;0.58;97.88;96234.97;5085113;28;20380;-64
2023/12/21 08:30:25;;;;;;;0.50;0.50;;;;;;;0.55;97.88;96218.06;5084759;28;20088;-63
2023/12/21 08:32:50;;;;;;;0.50;0.50;;;;;;;0.69;97.25;96209.06;5085185;28;20143;-63
2023/12/21 08:35:16;;;;;;;0.40;0.40;;;;;;;0.63;97.51;96199.91;5088909;28;20028;-63
2023/12/21 08:37:42;;;;;;;0.50;0.50;;;;;;;0.70;97.82;96197.97;5088679;28;20048;-61
2023/12/21 08:40:08;;;;;;;0.50;0.50;;;;;;;0.74;97.88;96171.44;5088596;28;20047;-63
2023/12/21 08:42:33;;;;;;;0.50;0.50;;;;;;;0.67;98.35;96142.75;5088744;28;20032;-63
2023/12/21 08:45:03;;;;;;;0.50;0.50;;;;;;;0.71;98.86;96126.44;5088859;28;20020;-63
2023/12/21 08:47:28;;;;;;;0.40;0.40;;;;;;;0.76;99.48;96113.50;5088590;28;20037;-63
2023/12/21 08:49:54;;;;;;;0.40;0.40;;;;;;;0.94;98.70;96085.59;5088560;28;20017;-63
2023/12/21 08:52:19;;;;;;;2.75;2.60;;;;;;;0.96;99.63;96084.63;5088704;28;20024;-64
2023/12/21 08:54:44;;;;;;;0.50;0.50;;;;;;;1.10;99.75;96075.59;5088615;28;20044;-64
2023/12/21 08:57:11;;;;;;;0.45;0.45;;;;;;;1.21;99.59;96060.66;5088429;28;20020;-64
2023/12/21 08:59:37;;;;;;;0.40;0.40;;;;;;;1.27;99.75;96046.78;5088385;28;20016;-64
2023/12/21 09:02:02;;;;;;;0.40;0.40;;;;;;;1.20;100.00;96025.78;5088044;28;20088;-65
2023/12/21 09:04:28;;;;;;;0.50;0.50;;;;;;;1.35;100.00;96005.59;5088469;28;20054;-64
2023/12/21 09:06:53;;;;;;;0.38;0.38;;;;;;;1.38;100.00;96004.63;5096555;23;20079;-68
2023/12/21 09:09:18;;;;;;;0.40;0.40;;;;;;;1.37;100.00;95988.47;5121131;22;20415;-71
2023/12/21 09:11:44;;;;;;;0.40;0.40;;;;;;;1.55;100.00;95986.84;5115835;22;20048;-64
2023/12/21 09:14:09;;;;;;;0.40;0.40;;;;;;;1.61;100.00;95972.97;5088730;28;20375;-64
2023/12/21 09:16:34;;;;;;;0.40;0.40;;;;;;;1.73;100.00;95959.63;5107082;28;20020;-63
2023/12/21 09:19:00;;;;;;;0.50;0.50;;;;;;;1.77;100.00;95941.59;5107119;28;20044;-64
2023/12/21 09:21:29;;;;;;;0.40;0.40;;;;;;;1.92;100.00;95934.94;5107855;28;20074;-63
2023/12/21 09:23:55;;;;;;;0.40;0.40;;;;;;;2.06;100.00;95927.47;5107649;28;20109;-63
2023/12/21 09:26:20;;;;;;;0.40;0.40;;;;;;;1.95;100.00;95927.16;5107973;28;20032;-63
2023/12/21 09:28:46;;;;;;;0.40;0.40;;;;;;;1.96;100.00;95914.31;5108182;28;20382;-63
2023/12/21 09:31:11;;;;;;;0.40;0.40;;;;;;;1.97;100.00;95905.72;5108153;28;20467;-63
2023/12/21 09:33:38;;;;;;;0.40;0.40;;;;;;;2.01;100.00;95885.09;5107990;28;20020;-63
2023/12/21 09:36:04;;;;;;;0.40;0.40;;;;;;;2.18;100.00;95880.03;5107790;28;20024;-63
2023/12/21 09:38:31;;;;;;;0.40;0.40;;;;;;;2.35;100.00;95865.56;5107853;28;20017;-65
2023/12/21 09:40:57;;;;;;;0.40;0.40;;;;;;;2.44;100.00;95860.03;5108114;28;20079;-64
2023/12/21 09:43:23;;;;;;;0.40;0.40;;;;;;;2.68;100.00;95851.19;5107889;28;20020;-65
2023/12/21 09:45:55;;;;;;;0.40;0.40;;;;;;;3.00;100.00;95837.66;5106416;28;20027;-64
2023/12/21 09:48:21;;;;;;;0.50;0.50;;;;;;;3.28;100.00;95803.72;5106644;28;20024;-64
2023/12/21 09:50:49;;;;;;;0.40;0.40;;;;;;;3.56;100.00;95803.97;5106231;28;20026;-64
2023/12/21 09:53:15;;;;;;;0.40;0.40;;;;;;;3.70;100.00;95792.97;5107224;28;20506;-64
2023/12/21 09:55:42;;;;;;;0.40;0.40;;;;;;;3.87;100.00;95791.16;5089417;28;20048;-64
2023/12/21 09:58:09;;;;;;;0.40;0.40;;;;;;;3.97;100.00;95777.78;5107616;28;20024;-64
2023/12/21 10:00:35;;;;;;;0.40;0.40;;;;;;;4.05;100.00;95767.06;5106531;28;20027;-65
2023/12/21 10:03:01;;;;;;;0.40;0.40;;;;;;;4.09;100.00;95742.88;5106595;28;20020;-64
2023/12/21 10:05:26;;;;;;;0.40;0.40;;;;;;;4.15;100.00;95741.69;5107403;28;20035;-64
2023/12/21 10:07:51;;;;;;;0.50;0.50;;;;;;;4.15;100.00;95733.16;5107170;28;20051;-64
2023/12/21 10:10:18;;;;;;;0.40;0.40;;;;;;;4.18;100.00;95726.13;5089006;28;20097;-65
2023/12/21 10:12:43;;;;;;;0.40;0.40;;;;;;;4.22;100.00;95714.75;5107357;28;20051;-64
2023/12/21 10:15:10;;;;;;;0.50;0.50;;;;;;;4.27;100.00;95691.38;5107273;28;20027;-65
2023/12/21 10:17:37;;;;;;;0.40;0.40;;;;;;;4.32;100.00;95691.09;5107146;28;20020;-66
2023/12/21 10:20:03;;;;;;;0.40;0.40;;;;;;;4.31;100.00;95668.94;5107078;28;20047;-64
2023/12/21 10:22:29;;;;;;;0.40;0.40;;;;;;;4.38;100.00;95662.50;5107228;28;20028;-64
2023/12/21 10:24:54;;;;;;;0.40;0.40;;;;;;;4.40;100.00;95647.00;5088559;28;20062;-63
2023/12/21 10:27:21;;;;;;;0.40;0.40;;;;;;;4.46;100.00;95650.03;5106983;28;20106;-64
2023/12/21 10:29:56;;;;;;;0.40;0.40;;;;;;;4.47;100.00;95636.25;5107004;28;20016;-64
2023/12/21 10:32:22;;;;;;;0.40;0.40;;;;;;;4.50;100.00;95606.19;5106822;28;20020;-64
2023/12/21 10:34:48;;;;;;;0.43;0.43;;;;;;;4.47;100.00;95620.84;5106769;28;20027;-64
2023/12/21 10:37:15;;;;;;;1.42;1.42;;;;;;;4.47;100.00;95605.44;5106806;28;20016;-65
2023/12/21 10:39:41;;;;;;;0.40;0.40;;;;;;;4.55;100.00;95609.28;5106339;28;20041;-64
2023/12/21 10:42:06;;;;;;;0.40;0.40;;;;;;;4.53;100.00;95603.41;5106654;28;20039;-64
2023/12/21 10:44:32;;;;;;;0.40;0.40;;;;;;;4.58;100.00;95604.78;5106547;28;20028;-65
2023/12/21 10:46:58;;;;;;;0.40;0.40;;;;;;;4.62;100.00;95592.56;5106535;28;20490;-64
2023/12/21 10:49:24;;;;;;;0.40;0.40;;;;;;;4.56;100.00;95591.22;5106595;28;20012;-65
2023/12/21 10:51:50;;;;;;;0.40;0.40;;;;;;;4.56;100.00;95580.13;5106468;28;20028;-64
2023/12/21 10:54:20;;;;;;;0.40;0.40;;;;;;;4.56;100.00;95557.00;5106324;28;20027;-65
2023/12/21 10:56:46;;;;;;;0.40;0.40;;;;;;;4.62;100.00;95558.38;5106082;28;20024;-64
2023/12/21 10:59:13;;;;;;;0.40;0.40;;;;;;;4.66;100.00;95555.53;5106486;28;20024;-65
2023/12/21 11:01:39;;;;;;;0.40;0.40;;;;;;;4.68;100.00;95548.53;5106141;28;20088;-65
2023/12/21 11:04:06;;;;;;;0.40;0.40;;;;;;;4.66;100.00;95555.53;5106487;28;20024;-65
2023/12/21 11:06:35;;;;;;;0.40;0.40;;;;;;;4.68;100.00;95540.81;5106142;28;20479;-65
2023/12/21 11:09:04;;;;;;;0.40;0.40;;;;;;;4.70;100.00;95528.72;5106267;28;20123;-66
2023/12/21 11:11:31;;;;;;;0.40;0.40;;;;;;;4.70;100.00;95520.16;5106244;28;20048;-65
2023/12/21 11:13:56;;;;;;;0.40;0.40;;;;;;;4.73;100.00;95508.91;5124621;22;20052;-65
2023/12/21 11:16:25;;;;;;;0.50;0.50;;;;;;;4.76;100.00;95499.22;5102697;22;20044;-68
2023/12/21 11:18:54;;;;;;;0.40;0.40;;;;;;;4.77;100.00;95505.19;5109423;22;20063;-62
2023/12/21 11:21:22;;;;;;;0.40;0.40;;;;;;;4.79;100.00;95482.81;5109315;22;20065;-68
2023/12/21 11:24:00;;;;;;;0.40;0.40;;;;;;;4.82;100.00;95477.47;5108760;22;20048;-62
2023/12/21 11:26:27;;;;;;;0.43;0.43;;;;;;;4.86;100.00;95468.63;5097890;22;20041;-67
2023/12/21 11:29:06;;;;;;;0.40;0.40;;;;;;;4.91;100.00;95463.19;5125206;28;20027;-67
2023/12/21 11:31:39;;;;;;;0.40;0.40;;;;;;;4.91;100.00;95466.59;5125885;28;20071;-67